sensor_id;sensor_type;location;lat;lon;timestamp;P1;durP1;ratioP1;P2;durP2;ratioP2
43835;SDS011;39345;43.964;25.340;2023-01-15T00:02:14;28.33;;;15.23;;
43835;SDS011;39345;43.964;25.340;2023-01-15T00:04:43;28.15;;;15.43;;
43835;SDS011;39345;43.964;25.340;2023-01-15T00:07:10;27.63;;;15.40;;
43835;SDS011;39345;43.964;25.340;2023-01-15T00:09:38;32.00;;;15.75;;
43835;SDS011;39345;43.964;25.340;2023-01-15T00:12:05;30.02;;;15.68;;
43835;SDS011;39345;43.964;25.340;2023-01-15T00:14:33;27.50;;;15.70;;
43835;SDS011;39345;43.964;25.340;2023-01-15T00:17:00;27.55;;;14.73;;
43835;SDS011;39345;43.964;25.340;2023-01-15T00:19:28;27.65;;;14.70;;
43835;SDS011;39345;43.964;25.340;2023-01-15T00:21:55;29.35;;;15.13;;
43835;SDS011;39345;43.964;25.340;2023-01-15T00:24:23;29.70;;;15.88;;
43835;SDS011;39345;43.964;25.340;2023-01-15T00:27:09;30.38;;;15.55;;
43835;SDS011;39345;43.964;25.340;2023-01-15T00:29:56;30.45;;;16.35;;
43835;SDS011;39345;43.964;25.340;2023-01-15T00:32:23;28.90;;;16.15;;
43835;SDS011;39345;43.964;25.340;2023-01-15T00:34:53;27.48;;;14.82;;
43835;SDS011;39345;43.964;25.340;2023-01-15T00:37:21;29.50;;;14.95;;
43835;SDS011;39345;43.964;25.340;2023-01-15T00:39:48;26.92;;;15.05;;
43835;SDS011;39345;43.964;25.340;2023-01-15T00:42:16;26.02;;;14.80;;
43835;SDS011;39345;43.964;25.340;2023-01-15T00:44:43;27.83;;;15.93;;
43835;SDS011;39345;43.964;25.340;2023-01-15T00:47:12;30.23;;;15.77;;
43835;SDS011;39345;43.964;25.340;2023-01-15T00:49:40;29.95;;;15.32;;
43835;SDS011;39345;43.964;25.340;2023-01-15T00:52:08;24.45;;;13.95;;
43835;SDS011;39345;43.964;25.340;2023-01-15T00:54:36;26.67;;;14.70;;
43835;SDS011;39345;43.964;25.340;2023-01-15T00:57:03;28.33;;;15.10;;
43835;SDS011;39345;43.964;25.340;2023-01-15T00:59:31;29.38;;;15.80;;
43835;SDS011;39345;43.964;25.340;2023-01-15T01:01:58;28.15;;;15.73;;
43835;SDS011;39345;43.964;25.340;2023-01-15T01:04:26;27.30;;;15.43;;
43835;SDS011;39345;43.964;25.340;2023-01-15T01:06:53;27.17;;;15.23;;
43835;SDS011;39345;43.964;25.340;2023-01-15T01:09:21;29.15;;;16.17;;
43835;SDS011;39345;43.964;25.340;2023-01-15T01:11:48;31.00;;;16.00;;
43835;SDS011;39345;43.964;25.340;2023-01-15T01:14:16;34.15;;;18.73;;
43835;SDS011;39345;43.964;25.340;2023-01-15T01:16:44;32.17;;;18.52;;
43835;SDS011;39345;43.964;25.340;2023-01-15T01:19:13;31.48;;;18.20;;
43835;SDS011;39345;43.964;25.340;2023-01-15T01:21:43;31.50;;;19.25;;
43835;SDS011;39345;43.964;25.340;2023-01-15T01:24:12;35.63;;;20.20;;
43835;SDS011;39345;43.964;25.340;2023-01-15T01:26:39;29.90;;;16.23;;
43835;SDS011;39345;43.964;25.340;2023-01-15T01:29:16;29.00;;;16.65;;
43835;SDS011;39345;43.964;25.340;2023-01-15T01:31:44;32.90;;;17.20;;
43835;SDS011;39345;43.964;25.340;2023-01-15T01:34:12;31.88;;;15.77;;
43835;SDS011;39345;43.964;25.340;2023-01-15T01:36:41;29.65;;;17.05;;
43835;SDS011;39345;43.964;25.340;2023-01-15T01:39:15;32.70;;;16.77;;
43835;SDS011;39345;43.964;25.340;2023-01-15T01:41:43;32.58;;;16.45;;
43835;SDS011;39345;43.964;25.340;2023-01-15T01:46:59;30.50;;;17.30;;
43835;SDS011;39345;43.964;25.340;2023-01-15T01:49:27;30.83;;;17.70;;
43835;SDS011;39345;43.964;25.340;2023-01-15T01:51:56;33.45;;;17.80;;
43835;SDS011;39345;43.964;25.340;2023-01-15T01:54:25;33.63;;;18.17;;
43835;SDS011;39345;43.964;25.340;2023-01-15T01:56:54;34.80;;;19.33;;
43835;SDS011;39345;43.964;25.340;2023-01-15T01:59:21;36.33;;;19.13;;
43835;SDS011;39345;43.964;25.340;2023-01-15T02:01:50;37.45;;;20.63;;
43835;SDS011;39345;43.964;25.340;2023-01-15T02:04:19;35.08;;;20.27;;
43835;SDS011;39345;43.964;25.340;2023-01-15T02:06:48;37.03;;;19.75;;
43835;SDS011;39345;43.964;25.340;2023-01-15T02:09:17;37.78;;;21.23;;
43835;SDS011;39345;43.964;25.340;2023-01-15T02:11:45;36.90;;;21.35;;
43835;SDS011;39345;43.964;25.340;2023-01-15T02:14:19;42.38;;;21.75;;
43835;SDS011;39345;43.964;25.340;2023-01-15T02:24:24;40.97;;;22.30;;
43835;SDS011;39345;43.964;25.340;2023-01-15T02:29:42;44.22;;;22.52;;
43835;SDS011;39345;43.964;25.340;2023-01-15T02:32:13;45.67;;;23.42;;
43835;SDS011;39345;43.964;25.340;2023-01-15T02:34:43;38.78;;;22.00;;
43835;SDS011;39345;43.964;25.340;2023-01-15T02:37:14;44.97;;;23.13;;
43835;SDS011;39345;43.964;25.340;2023-01-15T02:39:44;42.38;;;22.30;;
43835;SDS011;39345;43.964;25.340;2023-01-15T02:42:13;42.50;;;22.00;;
43835;SDS011;39345;43.964;25.340;2023-01-15T02:44:46;40.60;;;22.20;;
43835;SDS011;39345;43.964;25.340;2023-01-15T02:47:16;47.00;;;25.00;;
43835;SDS011;39345;43.964;25.340;2023-01-15T02:49:45;41.40;;;22.25;;
43835;SDS011;39345;43.964;25.340;2023-01-15T02:52:26;45.22;;;23.15;;
43835;SDS011;39345;43.964;25.340;2023-01-15T02:54:58;43.10;;;22.08;;
43835;SDS011;39345;43.964;25.340;2023-01-15T02:57:28;41.00;;;21.45;;
43835;SDS011;39345;43.964;25.340;2023-01-15T02:59:58;45.33;;;22.25;;
43835;SDS011;39345;43.964;25.340;2023-01-15T03:02:28;43.35;;;22.80;;
43835;SDS011;39345;43.964;25.340;2023-01-15T03:05:02;46.10;;;23.40;;
43835;SDS011;39345;43.964;25.340;2023-01-15T03:10:00;42.08;;;21.95;;
43835;SDS011;39345;43.964;25.340;2023-01-15T03:12:54;45.70;;;22.95;;
43835;SDS011;39345;43.964;25.340;2023-01-15T03:18:35;41.60;;;22.25;;
43835;SDS011;39345;43.964;25.340;2023-01-15T03:21:04;45.90;;;23.05;;
43835;SDS011;39345;43.964;25.340;2023-01-15T03:23:34;41.45;;;22.15;;
43835;SDS011;39345;43.964;25.340;2023-01-15T03:26:03;45.22;;;22.95;;
43835;SDS011;39345;43.964;25.340;2023-01-15T03:28:35;41.40;;;22.33;;
43835;SDS011;39345;43.964;25.340;2023-01-15T03:31:05;44.72;;;22.25;;
43835;SDS011;39345;43.964;25.340;2023-01-15T03:33:33;41.45;;;21.60;;
43835;SDS011;39345;43.964;25.340;2023-01-15T03:36:02;42.75;;;22.35;;
43835;SDS011;39345;43.964;25.340;2023-01-15T03:38:38;41.90;;;22.50;;
43835;SDS011;39345;43.964;25.340;2023-01-15T03:44:01;37.55;;;18.38;;
43835;SDS011;39345;43.964;25.340;2023-01-15T03:49:13;40.70;;;20.30;;
43835;SDS011;39345;43.964;25.340;2023-01-15T03:51:43;41.45;;;20.60;;
43835;SDS011;39345;43.964;25.340;2023-01-15T03:54:19;43.53;;;22.35;;
43835;SDS011;39345;43.964;25.340;2023-01-15T03:59:26;40.15;;;22.17;;
43835;SDS011;39345;43.964;25.340;2023-01-15T04:02:00;41.78;;;21.55;;
43835;SDS011;39345;43.964;25.340;2023-01-15T04:04:29;36.53;;;19.42;;
43835;SDS011;39345;43.964;25.340;2023-01-15T04:06:59;46.33;;;21.75;;
43835;SDS011;39345;43.964;25.340;2023-01-15T04:09:28;40.05;;;21.13;;
43835;SDS011;39345;43.964;25.340;2023-01-15T04:11:58;40.08;;;22.48;;
43835;SDS011;39345;43.964;25.340;2023-01-15T04:14:29;43.60;;;22.67;;
43835;SDS011;39345;43.964;25.340;2023-01-15T04:17:03;41.88;;;21.95;;
43835;SDS011;39345;43.964;25.340;2023-01-15T04:19:31;39.78;;;20.65;;
43835;SDS011;39345;43.964;25.340;2023-01-15T04:22:02;39.13;;;21.05;;
43835;SDS011;39345;43.964;25.340;2023-01-15T04:24:29;39.30;;;20.92;;
43835;SDS011;39345;43.964;25.340;2023-01-15T04:26:57;40.50;;;21.42;;
43835;SDS011;39345;43.964;25.340;2023-01-15T04:29:24;37.63;;;20.67;;
43835;SDS011;39345;43.964;25.340;2023-01-15T04:31:52;35.75;;;20.33;;
43835;SDS011;39345;43.964;25.340;2023-01-15T04:34:24;40.50;;;21.10;;
43835;SDS011;39345;43.964;25.340;2023-01-15T04:36:52;39.88;;;21.42;;
43835;SDS011;39345;43.964;25.340;2023-01-15T04:39:19;39.72;;;21.20;;
43835;SDS011;39345;43.964;25.340;2023-01-15T04:41:47;43.22;;;22.52;;
43835;SDS011;39345;43.964;25.340;2023-01-15T04:44:34;45.70;;;22.77;;
43835;SDS011;39345;43.964;25.340;2023-01-15T04:47:01;42.45;;;23.20;;
43835;SDS011;39345;43.964;25.340;2023-01-15T04:49:29;44.30;;;23.65;;
43835;SDS011;39345;43.964;25.340;2023-01-15T04:51:56;43.47;;;23.33;;
43835;SDS011;39345;43.964;25.340;2023-01-15T04:54:24;45.25;;;23.17;;
43835;SDS011;39345;43.964;25.340;2023-01-15T04:56:52;39.78;;;22.63;;
43835;SDS011;39345;43.964;25.340;2023-01-15T04:59:21;41.08;;;22.10;;
43835;SDS011;39345;43.964;25.340;2023-01-15T05:01:49;43.78;;;22.52;;
43835;SDS011;39345;43.964;25.340;2023-01-15T05:04:30;39.55;;;20.88;;
43835;SDS011;39345;43.964;25.340;2023-01-15T05:06:59;39.83;;;21.45;;
43835;SDS011;39345;43.964;25.340;2023-01-15T05:09:27;50.85;;;26.63;;
43835;SDS011;39345;43.964;25.340;2023-01-15T05:11:54;52.97;;;28.65;;
43835;SDS011;39345;43.964;25.340;2023-01-15T05:14:22;64.00;;;31.55;;
43835;SDS011;39345;43.964;25.340;2023-01-15T05:16:49;58.28;;;30.35;;
43835;SDS011;39345;43.964;25.340;2023-01-15T05:19:17;54.45;;;27.90;;
43835;SDS011;39345;43.964;25.340;2023-01-15T05:21:44;35.75;;;19.92;;
43835;SDS011;39345;43.964;25.340;2023-01-15T05:24:13;32.88;;;19.25;;
43835;SDS011;39345;43.964;25.340;2023-01-15T05:26:41;38.50;;;19.92;;
43835;SDS011;39345;43.964;25.340;2023-01-15T05:29:09;35.65;;;19.33;;
43835;SDS011;39345;43.964;25.340;2023-01-15T05:31:37;35.22;;;18.70;;
43835;SDS011;39345;43.964;25.340;2023-01-15T05:34:04;34.33;;;18.35;;
43835;SDS011;39345;43.964;25.340;2023-01-15T05:36:32;33.45;;;17.85;;
43835;SDS011;39345;43.964;25.340;2023-01-15T05:39:00;34.20;;;17.85;;
43835;SDS011;39345;43.964;25.340;2023-01-15T05:41:28;34.80;;;17.10;;
43835;SDS011;39345;43.964;25.340;2023-01-15T05:44:16;32.78;;;17.50;;
43835;SDS011;39345;43.964;25.340;2023-01-15T05:46:43;33.95;;;17.77;;
43835;SDS011;39345;43.964;25.340;2023-01-15T05:49:12;36.20;;;19.17;;
43835;SDS011;39345;43.964;25.340;2023-01-15T05:51:40;40.50;;;21.17;;
43835;SDS011;39345;43.964;25.340;2023-01-15T05:54:12;44.67;;;25.38;;
43835;SDS011;39345;43.964;25.340;2023-01-15T05:56:40;52.72;;;28.08;;
43835;SDS011;39345;43.964;25.340;2023-01-15T05:59:08;59.13;;;29.35;;
43835;SDS011;39345;43.964;25.340;2023-01-15T06:01:35;57.83;;;29.33;;
43835;SDS011;39345;43.964;25.340;2023-01-15T06:04:03;54.15;;;29.02;;
43835;SDS011;39345;43.964;25.340;2023-01-15T06:06:31;58.97;;;29.05;;
43835;SDS011;39345;43.964;25.340;2023-01-15T06:08:59;56.67;;;28.95;;
43835;SDS011;39345;43.964;25.340;2023-01-15T06:11:26;55.28;;;28.73;;
43835;SDS011;39345;43.964;25.340;2023-01-15T06:13:54;57.70;;;30.52;;
43835;SDS011;39345;43.964;25.340;2023-01-15T06:16:21;55.53;;;29.50;;
43835;SDS011;39345;43.964;25.340;2023-01-15T06:18:49;45.35;;;24.77;;
43835;SDS011;39345;43.964;25.340;2023-01-15T06:21:16;46.30;;;24.50;;
43835;SDS011;39345;43.964;25.340;2023-01-15T06:23:44;46.92;;;25.48;;
43835;SDS011;39345;43.964;25.340;2023-01-15T06:26:13;51.60;;;26.83;;
43835;SDS011;39345;43.964;25.340;2023-01-15T06:28:41;45.05;;;23.58;;
43835;SDS011;39345;43.964;25.340;2023-01-15T06:31:09;44.15;;;23.60;;
43835;SDS011;39345;43.964;25.340;2023-01-15T06:33:37;42.75;;;23.30;;
43835;SDS011;39345;43.964;25.340;2023-01-15T06:36:05;47.50;;;26.85;;
43835;SDS011;39345;43.964;25.340;2023-01-15T06:38:33;50.10;;;27.40;;
43835;SDS011;39345;43.964;25.340;2023-01-15T06:41:01;48.33;;;26.38;;
43835;SDS011;39345;43.964;25.340;2023-01-15T06:43:28;46.53;;;26.25;;
43835;SDS011;39345;43.964;25.340;2023-01-15T06:46:14;47.88;;;26.85;;
43835;SDS011;39345;43.964;25.340;2023-01-15T06:49:01;51.75;;;27.52;;
43835;SDS011;39345;43.964;25.340;2023-01-15T06:51:29;44.67;;;25.05;;
43835;SDS011;39345;43.964;25.340;2023-01-15T06:53:56;44.38;;;24.50;;
43835;SDS011;39345;43.964;25.340;2023-01-15T06:56:24;42.53;;;23.90;;
43835;SDS011;39345;43.964;25.340;2023-01-15T06:58:51;42.60;;;22.95;;
43835;SDS011;39345;43.964;25.340;2023-01-15T07:01:21;43.67;;;24.80;;
43835;SDS011;39345;43.964;25.340;2023-01-15T07:03:49;42.08;;;23.48;;
43835;SDS011;39345;43.964;25.340;2023-01-15T07:06:16;37.10;;;21.58;;
43835;SDS011;39345;43.964;25.340;2023-01-15T07:08:44;40.72;;;23.83;;
43835;SDS011;39345;43.964;25.340;2023-01-15T07:11:11;50.35;;;28.75;;
43835;SDS011;39345;43.964;25.340;2023-01-15T07:13:39;55.80;;;31.25;;
43835;SDS011;39345;43.964;25.340;2023-01-15T07:16:07;51.05;;;28.20;;
43835;SDS011;39345;43.964;25.340;2023-01-15T07:18:55;50.63;;;27.13;;
43835;SDS011;39345;43.964;25.340;2023-01-15T07:21:25;40.60;;;23.30;;
43835;SDS011;39345;43.964;25.340;2023-01-15T07:23:53;45.28;;;23.70;;
43835;SDS011;39345;43.964;25.340;2023-01-15T07:26:20;44.25;;;24.75;;
43835;SDS011;39345;43.964;25.340;2023-01-15T07:28:48;47.88;;;27.75;;
43835;SDS011;39345;43.964;25.340;2023-01-15T07:31:16;50.95;;;27.88;;
43835;SDS011;39345;43.964;25.340;2023-01-15T07:33:44;45.15;;;26.60;;
43835;SDS011;39345;43.964;25.340;2023-01-15T07:36:11;46.15;;;27.38;;
43835;SDS011;39345;43.964;25.340;2023-01-15T07:38:38;49.22;;;28.80;;
43835;SDS011;39345;43.964;25.340;2023-01-15T07:41:06;50.10;;;30.02;;
43835;SDS011;39345;43.964;25.340;2023-01-15T07:43:52;50.22;;;29.48;;
43835;SDS011;39345;43.964;25.340;2023-01-15T07:46:38;50.47;;;30.65;;
43835;SDS011;39345;43.964;25.340;2023-01-15T07:49:26;46.80;;;28.58;;
43835;SDS011;39345;43.964;25.340;2023-01-15T07:52:14;51.05;;;29.50;;
43835;SDS011;39345;43.964;25.340;2023-01-15T07:54:42;51.10;;;30.15;;
43835;SDS011;39345;43.964;25.340;2023-01-15T07:57:10;49.97;;;30.63;;
43835;SDS011;39345;43.964;25.340;2023-01-15T07:59:38;48.60;;;28.27;;
43835;SDS011;39345;43.964;25.340;2023-01-15T08:02:06;50.08;;;29.10;;
43835;SDS011;39345;43.964;25.340;2023-01-15T08:04:33;49.17;;;28.90;;
43835;SDS011;39345;43.964;25.340;2023-01-15T08:07:01;52.42;;;31.45;;
43835;SDS011;39345;43.964;25.340;2023-01-15T08:09:29;46.10;;;28.27;;
43835;SDS011;39345;43.964;25.340;2023-01-15T08:12:00;50.60;;;30.33;;
43835;SDS011;39345;43.964;25.340;2023-01-15T08:14:46;299.70;;;44.00;;
43835;SDS011;39345;43.964;25.340;2023-01-15T08:17:33;47.85;;;28.48;;
43835;SDS011;39345;43.964;25.340;2023-01-15T08:20:04;50.08;;;27.73;;
43835;SDS011;39345;43.964;25.340;2023-01-15T08:22:32;49.38;;;27.52;;
43835;SDS011;39345;43.964;25.340;2023-01-15T08:25:00;48.03;;;26.35;;
43835;SDS011;39345;43.964;25.340;2023-01-15T08:27:27;50.47;;;27.73;;
43835;SDS011;39345;43.964;25.340;2023-01-15T08:29:58;46.20;;;27.05;;
43835;SDS011;39345;43.964;25.340;2023-01-15T08:32:25;43.60;;;25.90;;
43835;SDS011;39345;43.964;25.340;2023-01-15T08:34:52;44.78;;;27.48;;
43835;SDS011;39345;43.964;25.340;2023-01-15T08:37:20;45.22;;;27.63;;
43835;SDS011;39345;43.964;25.340;2023-01-15T08:39:50;47.08;;;27.85;;
43835;SDS011;39345;43.964;25.340;2023-01-15T08:42:19;53.35;;;30.63;;
43835;SDS011;39345;43.964;25.340;2023-01-15T08:44:47;64.68;;;34.97;;
43835;SDS011;39345;43.964;25.340;2023-01-15T08:47:16;61.10;;;33.08;;
43835;SDS011;39345;43.964;25.340;2023-01-15T08:49:45;35.50;;;20.92;;
43835;SDS011;39345;43.964;25.340;2023-01-15T08:52:13;33.35;;;19.65;;
43835;SDS011;39345;43.964;25.340;2023-01-15T08:54:41;30.92;;;18.98;;
43835;SDS011;39345;43.964;25.340;2023-01-15T08:57:09;31.15;;;18.27;;
43835;SDS011;39345;43.964;25.340;2023-01-15T08:59:38;34.08;;;19.50;;
43835;SDS011;39345;43.964;25.340;2023-01-15T09:02:11;30.80;;;18.58;;
43835;SDS011;39345;43.964;25.340;2023-01-15T09:04:40;35.30;;;21.48;;
43835;SDS011;39345;43.964;25.340;2023-01-15T09:07:08;30.95;;;17.67;;
43835;SDS011;39345;43.964;25.340;2023-01-15T09:09:35;32.53;;;18.52;;
43835;SDS011;39345;43.964;25.340;2023-01-15T09:12:03;31.45;;;18.02;;
43835;SDS011;39345;43.964;25.340;2023-01-15T09:14:30;30.98;;;18.48;;
43835;SDS011;39345;43.964;25.340;2023-01-15T09:17:18;30.73;;;18.30;;
43835;SDS011;39345;43.964;25.340;2023-01-15T09:19:45;30.25;;;17.80;;
43835;SDS011;39345;43.964;25.340;2023-01-15T09:22:13;29.25;;;17.30;;
43835;SDS011;39345;43.964;25.340;2023-01-15T09:24:41;29.77;;;18.05;;
43835;SDS011;39345;43.964;25.340;2023-01-15T09:27:10;30.90;;;17.98;;
43835;SDS011;39345;43.964;25.340;2023-01-15T09:29:38;31.27;;;19.88;;
43835;SDS011;39345;43.964;25.340;2023-01-15T09:32:06;31.13;;;18.80;;
43835;SDS011;39345;43.964;25.340;2023-01-15T09:34:35;36.10;;;21.75;;
43835;SDS011;39345;43.964;25.340;2023-01-15T09:37:02;31.80;;;18.60;;
43835;SDS011;39345;43.964;25.340;2023-01-15T09:39:30;32.10;;;18.90;;
43835;SDS011;39345;43.964;25.340;2023-01-15T09:42:06;30.38;;;19.13;;
43835;SDS011;39345;43.964;25.340;2023-01-15T09:52:17;32.00;;;18.95;;
43835;SDS011;39345;43.964;25.340;2023-01-15T09:57:14;30.88;;;18.70;;
43835;SDS011;39345;43.964;25.340;2023-01-15T09:59:43;28.17;;;18.10;;
43835;SDS011;39345;43.964;25.340;2023-01-15T10:02:14;30.83;;;19.35;;
43835;SDS011;39345;43.964;25.340;2023-01-15T10:04:47;29.65;;;19.33;;
43835;SDS011;39345;43.964;25.340;2023-01-15T10:09:52;32.50;;;19.58;;
43835;SDS011;39345;43.964;25.340;2023-01-15T10:12:23;35.10;;;21.20;;
43835;SDS011;39345;43.964;25.340;2023-01-15T10:15:04;35.95;;;23.73;;
43835;SDS011;39345;43.964;25.340;2023-01-15T10:17:42;34.00;;;21.00;;
43835;SDS011;39345;43.964;25.340;2023-01-15T10:20:13;34.75;;;22.58;;
43835;SDS011;39345;43.964;25.340;2023-01-15T10:25:22;38.50;;;24.65;;
43835;SDS011;39345;43.964;25.340;2023-01-15T10:27:51;28.52;;;18.85;;
43835;SDS011;39345;43.964;25.340;2023-01-15T10:32:56;30.20;;;19.05;;
43835;SDS011;39345;43.964;25.340;2023-01-15T10:35:30;41.83;;;25.70;;
43835;SDS011;39345;43.964;25.340;2023-01-15T10:38:01;38.92;;;23.63;;
43835;SDS011;39345;43.964;25.340;2023-01-15T10:43:10;38.13;;;21.45;;
43835;SDS011;39345;43.964;25.340;2023-01-15T10:45:49;43.22;;;27.15;;
43835;SDS011;39345;43.964;25.340;2023-01-15T10:50:51;40.08;;;24.02;;
43835;SDS011;39345;43.964;25.340;2023-01-15T10:56:11;40.28;;;23.10;;
43835;SDS011;39345;43.964;25.340;2023-01-15T11:01:37;41.85;;;25.65;;
43835;SDS011;39345;43.964;25.340;2023-01-15T11:04:10;41.55;;;25.83;;
43835;SDS011;39345;43.964;25.340;2023-01-15T11:06:39;38.95;;;24.08;;
43835;SDS011;39345;43.964;25.340;2023-01-15T11:09:08;29.13;;;17.92;;
43835;SDS011;39345;43.964;25.340;2023-01-15T11:11:45;25.50;;;15.02;;
43835;SDS011;39345;43.964;25.340;2023-01-15T11:17:18;24.98;;;15.50;;
43835;SDS011;39345;43.964;25.340;2023-01-15T11:20:26;29.27;;;16.77;;
43835;SDS011;39345;43.964;25.340;2023-01-15T11:22:54;28.33;;;16.90;;
43835;SDS011;39345;43.964;25.340;2023-01-15T11:25:29;27.80;;;17.48;;
43835;SDS011;39345;43.964;25.340;2023-01-15T11:27:57;23.42;;;15.13;;
43835;SDS011;39345;43.964;25.340;2023-01-15T11:30:27;21.42;;;12.85;;
43835;SDS011;39345;43.964;25.340;2023-01-15T11:32:56;22.90;;;14.38;;
43835;SDS011;39345;43.964;25.340;2023-01-15T11:35:24;22.60;;;13.90;;
43835;SDS011;39345;43.964;25.340;2023-01-15T11:38:05;23.08;;;12.50;;
43835;SDS011;39345;43.964;25.340;2023-01-15T11:40:33;18.75;;;12.80;;
43835;SDS011;39345;43.964;25.340;2023-01-15T11:43:01;21.60;;;13.60;;
43835;SDS011;39345;43.964;25.340;2023-01-15T11:45:48;17.48;;;11.35;;
43835;SDS011;39345;43.964;25.340;2023-01-15T11:48:43;23.17;;;12.95;;
43835;SDS011;39345;43.964;25.340;2023-01-15T11:51:30;24.42;;;15.27;;
43835;SDS011;39345;43.964;25.340;2023-01-15T11:54:03;17.77;;;11.73;;
43835;SDS011;39345;43.964;25.340;2023-01-15T11:56:31;19.58;;;12.55;;
43835;SDS011;39345;43.964;25.340;2023-01-15T11:59:03;21.35;;;12.02;;
43835;SDS011;39345;43.964;25.340;2023-01-15T12:01:36;19.65;;;12.15;;
43835;SDS011;39345;43.964;25.340;2023-01-15T12:04:06;18.92;;;11.65;;
43835;SDS011;39345;43.964;25.340;2023-01-15T12:06:34;17.40;;;11.45;;
43835;SDS011;39345;43.964;25.340;2023-01-15T12:22:24;15.80;;;10.50;;
43835;SDS011;39345;43.964;25.340;2023-01-15T12:24:58;19.45;;;11.05;;
43835;SDS011;39345;43.964;25.340;2023-01-15T12:30:19;19.15;;;11.77;;
43835;SDS011;39345;43.964;25.340;2023-01-15T12:35:59;14.10;;;8.57;;
43835;SDS011;39345;43.964;25.340;2023-01-15T12:41:00;13.55;;;8.77;;
43835;SDS011;39345;43.964;25.340;2023-01-15T12:43:28;15.88;;;10.80;;
43835;SDS011;39345;43.964;25.340;2023-01-15T12:46:35;14.13;;;9.73;;
43835;SDS011;39345;43.964;25.340;2023-01-15T12:51:52;16.17;;;9.07;;
43835;SDS011;39345;43.964;25.340;2023-01-15T12:54:23;14.63;;;9.80;;
43835;SDS011;39345;43.964;25.340;2023-01-15T12:57:00;13.30;;;8.98;;
43835;SDS011;39345;43.964;25.340;2023-01-15T12:59:31;13.45;;;8.23;;
43835;SDS011;39345;43.964;25.340;2023-01-15T13:07:14;10.73;;;7.25;;
43835;SDS011;39345;43.964;25.340;2023-01-15T13:09:44;12.80;;;8.18;;
43835;SDS011;39345;43.964;25.340;2023-01-15T13:12:14;13.88;;;7.57;;
43835;SDS011;39345;43.964;25.340;2023-01-15T13:14:42;11.75;;;7.20;;
43835;SDS011;39345;43.964;25.340;2023-01-15T13:20:24;13.90;;;8.23;;
43835;SDS011;39345;43.964;25.340;2023-01-15T13:25:39;14.13;;;9.30;;
43835;SDS011;39345;43.964;25.340;2023-01-15T13:30:50;12.80;;;8.80;;
43835;SDS011;39345;43.964;25.340;2023-01-15T13:36:11;15.52;;;9.65;;
43835;SDS011;39345;43.964;25.340;2023-01-15T13:38:41;17.27;;;11.00;;
43835;SDS011;39345;43.964;25.340;2023-01-15T13:41:11;14.50;;;9.95;;
43835;SDS011;39345;43.964;25.340;2023-01-15T13:44:02;13.52;;;8.40;;
43835;SDS011;39345;43.964;25.340;2023-01-15T13:46:30;13.35;;;8.07;;
43835;SDS011;39345;43.964;25.340;2023-01-15T13:48:57;17.02;;;10.30;;
43835;SDS011;39345;43.964;25.340;2023-01-15T13:53:52;13.10;;;8.55;;
43835;SDS011;39345;43.964;25.340;2023-01-15T13:56:25;18.15;;;10.98;;
43835;SDS011;39345;43.964;25.340;2023-01-15T13:58:54;18.95;;;11.82;;
43835;SDS011;39345;43.964;25.340;2023-01-15T14:06:45;16.38;;;9.38;;
43835;SDS011;39345;43.964;25.340;2023-01-15T14:09:25;12.82;;;8.23;;
43835;SDS011;39345;43.964;25.340;2023-01-15T14:38:47;16.85;;;10.30;;
43835;SDS011;39345;43.964;25.340;2023-01-15T14:41:16;19.38;;;11.98;;
43835;SDS011;39345;43.964;25.340;2023-01-15T14:43:51;16.45;;;11.63;;
43835;SDS011;39345;43.964;25.340;2023-01-15T14:46:32;20.70;;;13.32;;
43835;SDS011;39345;43.964;25.340;2023-01-15T14:49:02;23.00;;;15.18;;
43835;SDS011;39345;43.964;25.340;2023-01-15T14:51:30;24.25;;;16.85;;
43835;SDS011;39345;43.964;25.340;2023-01-15T14:54:08;22.92;;;14.98;;
43835;SDS011;39345;43.964;25.340;2023-01-15T14:56:41;28.90;;;18.23;;
43835;SDS011;39345;43.964;25.340;2023-01-15T15:07:20;35.55;;;23.83;;
43835;SDS011;39345;43.964;25.340;2023-01-15T15:10:05;34.95;;;21.52;;
43835;SDS011;39345;43.964;25.340;2023-01-15T15:12:43;28.30;;;18.58;;
43835;SDS011;39345;43.964;25.340;2023-01-15T15:15:19;23.23;;;13.18;;
43835;SDS011;39345;43.964;25.340;2023-01-15T15:26:00;24.70;;;15.40;;
43835;SDS011;39345;43.964;25.340;2023-01-15T15:28:28;56.53;;;34.05;;
43835;SDS011;39345;43.964;25.340;2023-01-15T15:30:56;53.40;;;34.40;;
43835;SDS011;39345;43.964;25.340;2023-01-15T15:33:37;62.70;;;39.63;;
43835;SDS011;39345;43.964;25.340;2023-01-15T15:36:05;72.40;;;41.90;;
43835;SDS011;39345;43.964;25.340;2023-01-15T15:38:33;47.53;;;29.48;;
43835;SDS011;39345;43.964;25.340;2023-01-15T15:41:06;46.90;;;28.98;;
43835;SDS011;39345;43.964;25.340;2023-01-15T15:46:31;39.35;;;24.25;;
43835;SDS011;39345;43.964;25.340;2023-01-15T15:49:18;49.00;;;28.52;;
43835;SDS011;39345;43.964;25.340;2023-01-15T15:51:46;56.75;;;37.05;;
43835;SDS011;39345;43.964;25.340;2023-01-15T15:59:25;67.85;;;48.72;;
43835;SDS011;39345;43.964;25.340;2023-01-15T16:01:54;67.07;;;44.42;;
43835;SDS011;39345;43.964;25.340;2023-01-15T16:04:21;115.30;;;63.35;;
43835;SDS011;39345;43.964;25.340;2023-01-15T16:06:49;110.85;;;60.40;;
43835;SDS011;39345;43.964;25.340;2023-01-15T16:09:21;116.38;;;64.82;;
43835;SDS011;39345;43.964;25.340;2023-01-15T16:11:52;65.03;;;40.05;;
43835;SDS011;39345;43.964;25.340;2023-01-15T16:14:20;56.53;;;33.60;;
43835;SDS011;39345;43.964;25.340;2023-01-15T16:16:48;48.33;;;30.42;;
43835;SDS011;39345;43.964;25.340;2023-01-15T16:19:17;49.78;;;29.35;;
43835;SDS011;39345;43.964;25.340;2023-01-15T16:21:45;66.68;;;42.00;;
43835;SDS011;39345;43.964;25.340;2023-01-15T16:24:23;50.67;;;33.40;;
43835;SDS011;39345;43.964;25.340;2023-01-15T16:26:53;49.65;;;33.95;;
43835;SDS011;39345;43.964;25.340;2023-01-15T16:29:23;63.13;;;40.72;;
43835;SDS011;39345;43.964;25.340;2023-01-15T16:31:52;68.07;;;44.03;;
43835;SDS011;39345;43.964;25.340;2023-01-15T16:34:23;64.22;;;41.80;;
43835;SDS011;39345;43.964;25.340;2023-01-15T16:36:51;75.00;;;49.83;;
43835;SDS011;39345;43.964;25.340;2023-01-15T16:39:21;76.68;;;51.00;;
43835;SDS011;39345;43.964;25.340;2023-01-15T16:41:49;71.35;;;46.75;;
43835;SDS011;39345;43.964;25.340;2023-01-15T16:44:38;76.95;;;50.53;;
43835;SDS011;39345;43.964;25.340;2023-01-15T16:47:17;65.75;;;41.47;;
43835;SDS011;39345;43.964;25.340;2023-01-15T16:49:48;63.00;;;41.83;;
43835;SDS011;39345;43.964;25.340;2023-01-15T16:55:01;75.75;;;50.95;;
43835;SDS011;39345;43.964;25.340;2023-01-15T16:57:30;60.10;;;38.55;;
43835;SDS011;39345;43.964;25.340;2023-01-15T17:00:00;71.60;;;47.38;;
43835;SDS011;39345;43.964;25.340;2023-01-15T17:02:29;71.70;;;46.63;;
43835;SDS011;39345;43.964;25.340;2023-01-15T17:05:00;74.60;;;47.63;;
43835;SDS011;39345;43.964;25.340;2023-01-15T17:07:31;73.55;;;42.97;;
43835;SDS011;39345;43.964;25.340;2023-01-15T17:09:59;73.85;;;42.28;;
43835;SDS011;39345;43.964;25.340;2023-01-15T17:12:34;71.25;;;40.15;;